sensor_id;sensor_type;location;lat;lon;timestamp;pressure;altitude;pressure_sealevel;temperature;humidity
10060;BME280;5069;49.306;8.636;2022-07-26T00:02:46;100184.63;;;25.83;43.99
10060;BME280;5069;49.306;8.636;2022-07-26T00:05:49;100179.97;;;25.75;44.51
10060;BME280;5069;49.306;8.636;2022-07-26T00:08:51;100176.41;;;25.75;44.86
10060;BME280;5069;49.306;8.636;2022-07-26T00:11:52;100185.22;;;25.59;45.40
10060;BME280;5069;49.306;8.636;2022-07-26T00:14:54;100186.22;;;25.58;45.48
10060;BME280;5069;49.306;8.636;2022-07-26T00:17:55;100190.47;;;25.61;45.52
10060;BME280;5069;49.306;8.636;2022-07-26T00:20:57;100194.31;;;25.58;45.65
10060;BME280;5069;49.306;8.636;2022-07-26T00:23:58;100195.59;;;25.54;46.09
10060;BME280;5069;49.306;8.636;2022-07-26T00:27:00;100203.25;;;25.59;45.71
10060;BME280;5069;49.306;8.636;2022-07-26T00:30:04;100204.50;;;25.64;45.66
10060;BME280;5069;49.306;8.636;2022-07-26T00:33:06;100208.59;;;25.68;45.65
10060;BME280;5069;49.306;8.636;2022-07-26T00:36:08;100210.34;;;25.60;46.00
10060;BME280;5069;49.306;8.636;2022-07-26T00:39:10;100212.63;;;25.55;45.89
10060;BME280;5069;49.306;8.636;2022-07-26T00:42:12;100212.69;;;25.45;46.04
10060;BME280;5069;49.306;8.636;2022-07-26T00:45:15;100219.63;;;25.57;45.72
10060;BME280;5069;49.306;8.636;2022-07-26T00:48:17;100221.69;;;25.63;45.46
10060;BME280;5069;49.306;8.636;2022-07-26T00:51:19;100228.13;;;25.62;45.95
10060;BME280;5069;49.306;8.636;2022-07-26T00:54:21;100235.91;;;25.65;45.72
10060;BME280;5069;49.306;8.636;2022-07-26T00:57:22;100239.09;;;25.51;46.08
10060;BME280;5069;49.306;8.636;2022-07-26T01:00:24;100243.28;;;25.63;45.65
10060;BME280;5069;49.306;8.636;2022-07-26T01:03:28;100247.78;;;25.72;45.27
10060;BME280;5069;49.306;8.636;2022-07-26T01:06:40;100252.09;;;25.65;46.15
10060;BME280;5069;49.306;8.636;2022-07-26T01:09:42;100253.69;;;25.58;46.81
10060;BME280;5069;49.306;8.636;2022-07-26T01:12:45;100253.91;;;25.37;47.66
10060;BME280;5069;49.306;8.636;2022-07-26T01:15:47;100255.38;;;25.32;47.77
10060;BME280;5069;49.306;8.636;2022-07-26T01:18:49;100250.31;;;25.19;48.29
10060;BME280;5069;49.306;8.636;2022-07-26T01:21:50;100249.16;;;25.22;48.45
10060;BME280;5069;49.306;8.636;2022-07-26T01:24:52;100258.13;;;25.22;48.48
10060;BME280;5069;49.306;8.636;2022-07-26T01:27:53;100247.75;;;25.18;49.42
10060;BME280;5069;49.306;8.636;2022-07-26T01:30:55;100248.78;;;25.07;49.81
10060;BME280;5069;49.306;8.636;2022-07-26T01:33:57;100251.22;;;25.00;50.50
10060;BME280;5069;49.306;8.636;2022-07-26T01:36:58;100246.13;;;24.97;50.59
10060;BME280;5069;49.306;8.636;2022-07-26T01:40:00;100246.16;;;24.78;51.27
10060;BME280;5069;49.306;8.636;2022-07-26T01:43:02;100241.50;;;24.70;52.09
10060;BME280;5069;49.306;8.636;2022-07-26T01:46:05;100247.03;;;24.69;52.66
10060;BME280;5069;49.306;8.636;2022-07-26T01:49:07;100250.53;;;24.79;52.07
10060;BME280;5069;49.306;8.636;2022-07-26T01:52:09;100247.56;;;24.82;52.04
10060;BME280;5069;49.306;8.636;2022-07-26T01:55:11;100253.28;;;24.69;52.95
10060;BME280;5069;49.306;8.636;2022-07-26T01:58:12;100249.88;;;24.77;52.60
10060;BME280;5069;49.306;8.636;2022-07-26T02:01:14;100248.44;;;24.73;53.16
10060;BME280;5069;49.306;8.636;2022-07-26T02:04:36;100249.44;;;24.62;54.44
10060;BME280;5069;49.306;8.636;2022-07-26T02:07:56;100254.44;;;24.48;54.41
10060;BME280;5069;49.306;8.636;2022-07-26T02:10:58;100258.69;;;24.41;54.68
10060;BME280;5069;49.306;8.636;2022-07-26T02:14:04;100252.75;;;24.47;54.66
10060;BME280;5069;49.306;8.636;2022-07-26T02:17:06;100255.59;;;24.36;55.58
10060;BME280;5069;49.306;8.636;2022-07-26T02:20:08;100262.66;;;24.17;57.04
10060;BME280;5069;49.306;8.636;2022-07-26T02:23:10;100261.22;;;23.94;58.42
10060;BME280;5069;49.306;8.636;2022-07-26T02:26:12;100258.94;;;23.80;58.52
10060;BME280;5069;49.306;8.636;2022-07-26T02:29:13;100264.63;;;23.96;58.19
10060;BME280;5069;49.306;8.636;2022-07-26T02:32:15;100265.19;;;23.80;59.95
10060;BME280;5069;49.306;8.636;2022-07-26T02:35:17;100269.09;;;23.57;61.00
10060;BME280;5069;49.306;8.636;2022-07-26T02:38:18;100263.41;;;23.51;61.55
10060;BME280;5069;49.306;8.636;2022-07-26T02:41:20;100264.03;;;23.43;61.77
10060;BME280;5069;49.306;8.636;2022-07-26T02:44:22;100268.25;;;23.36;62.18
10060;BME280;5069;49.306;8.636;2022-07-26T02:47:24;100271.78;;;23.36;62.43
10060;BME280;5069;49.306;8.636;2022-07-26T02:50:26;100278.41;;;23.23;62.61
10060;BME280;5069;49.306;8.636;2022-07-26T02:53:28;100281.97;;;23.23;63.13
10060;BME280;5069;49.306;8.636;2022-07-26T02:56:29;100276.28;;;23.26;63.10
10060;BME280;5069;49.306;8.636;2022-07-26T02:59:31;100277.97;;;23.18;63.53
10060;BME280;5069;49.306;8.636;2022-07-26T03:02:32;100278.41;;;23.23;62.72
10060;BME280;5069;49.306;8.636;2022-07-26T03:05:34;100276.50;;;23.14;61.83
10060;BME280;5069;49.306;8.636;2022-07-26T03:08:35;100271.66;;;23.07;60.19
10060;BME280;5069;49.306;8.636;2022-07-26T03:11:37;100269.72;;;23.10;59.50
10060;BME280;5069;49.306;8.636;2022-07-26T03:14:39;100273.34;;;22.99;59.58
10060;BME280;5069;49.306;8.636;2022-07-26T03:17:40;100269.84;;;22.78;59.81
10060;BME280;5069;49.306;8.636;2022-07-26T03:20:42;100269.72;;;22.68;59.77
10060;BME280;5069;49.306;8.636;2022-07-26T03:23:43;100272.88;;;22.73;59.50
10060;BME280;5069;49.306;8.636;2022-07-26T03:26:45;100280.81;;;22.75;58.86
10060;BME280;5069;49.306;8.636;2022-07-26T03:29:46;100265.22;;;22.89;58.35
10060;BME280;5069;49.306;8.636;2022-07-26T03:32:48;100276.91;;;23.09;57.10
10060;BME280;5069;49.306;8.636;2022-07-26T03:35:49;100281.13;;;23.02;57.08
10060;BME280;5069;49.306;8.636;2022-07-26T03:38:51;100274.72;;;22.93;57.15
10060;BME280;5069;49.306;8.636;2022-07-26T03:41:52;100279.56;;;22.99;56.92
10060;BME280;5069;49.306;8.636;2022-07-26T03:44:54;100278.63;;;23.10;56.46
10060;BME280;5069;49.306;8.636;2022-07-26T03:47:55;100273.72;;;23.25;55.91
10060;BME280;5069;49.306;8.636;2022-07-26T03:50:57;100287.09;;;23.36;55.62
10060;BME280;5069;49.306;8.636;2022-07-26T03:53:59;100288.25;;;23.43;55.92
10060;BME280;5069;49.306;8.636;2022-07-26T03:57:00;100284.06;;;23.50;55.64
10060;BME280;5069;49.306;8.636;2022-07-26T04:00:02;100286.34;;;23.55;56.38
10060;BME280;5069;49.306;8.636;2022-07-26T04:03:07;100289.47;;;23.60;56.12
10060;BME280;5069;49.306;8.636;2022-07-26T04:06:09;100287.38;;;23.63;56.56
10060;BME280;5069;49.306;8.636;2022-07-26T04:09:12;100294.84;;;23.60;58.11
10060;BME280;5069;49.306;8.636;2022-07-26T04:12:13;100290.31;;;23.51;57.69
10060;BME280;5069;49.306;8.636;2022-07-26T04:15:15;100290.94;;;23.43;58.97
10060;BME280;5069;49.306;8.636;2022-07-26T04:18:19;100294.47;;;23.43;58.71
10060;BME280;5069;49.306;8.636;2022-07-26T04:21:21;100299.34;;;23.50;58.30
10060;BME280;5069;49.306;8.636;2022-07-26T04:24:22;100299.88;;;23.43;58.89
10060;BME280;5069;49.306;8.636;2022-07-26T04:27:26;100302.69;;;23.42;58.73
10060;BME280;5069;49.306;8.636;2022-07-26T04:30:28;100303.03;;;23.48;58.47
10060;BME280;5069;49.306;8.636;2022-07-26T04:33:29;100312.06;;;23.47;59.71
10060;BME280;5069;49.306;8.636;2022-07-26T04:36:31;100313.31;;;23.43;59.21
10060;BME280;5069;49.306;8.636;2022-07-26T04:39:33;100316.00;;;23.43;58.81
10060;BME280;5069;49.306;8.636;2022-07-26T04:42:35;100321.25;;;23.45;58.36
10060;BME280;5069;49.306;8.636;2022-07-26T04:45:36;100324.63;;;23.37;58.06
10060;BME280;5069;49.306;8.636;2022-07-26T04:48:38;100322.72;;;23.49;57.14
10060;BME280;5069;49.306;8.636;2022-07-26T04:51:40;100323.00;;;23.46;56.92
10060;BME280;5069;49.306;8.636;2022-07-26T04:54:41;100338.59;;;23.31;57.00
10060;BME280;5069;49.306;8.636;2022-07-26T04:57:44;100330.97;;;23.36;57.15
10060;BME280;5069;49.306;8.636;2022-07-26T05:00:47;100333.53;;;23.38;57.82
10060;BME280;5069;49.306;8.636;2022-07-26T05:04:09;100337.81;;;23.40;57.52
10060;BME280;5069;49.306;8.636;2022-07-26T05:07:11;100336.03;;;23.30;60.14
10060;BME280;5069;49.306;8.636;2022-07-26T05:10:14;100342.97;;;23.23;60.75
10060;BME280;5069;49.306;8.636;2022-07-26T05:13:16;100347.66;;;23.30;60.79
10060;BME280;5069;49.306;8.636;2022-07-26T05:16:29;100347.06;;;23.27;61.87
10060;BME280;5069;49.306;8.636;2022-07-26T05:19:31;100355.47;;;23.33;61.04
10060;BME280;5069;49.306;8.636;2022-07-26T05:22:34;100350.50;;;23.29;63.07
10060;BME280;5069;49.306;8.636;2022-07-26T05:25:36;100349.66;;;22.87;65.87
10060;BME280;5069;49.306;8.636;2022-07-26T05:28:39;100356.75;;;22.88;66.21
10060;BME280;5069;49.306;8.636;2022-07-26T05:31:41;100356.63;;;22.89;67.63
10060;BME280;5069;49.306;8.636;2022-07-26T05:34:42;100360.41;;;22.87;69.09
10060;BME280;5069;49.306;8.636;2022-07-26T05:37:44;100352.66;;;22.73;68.89
10060;BME280;5069;49.306;8.636;2022-07-26T05:40:45;100357.59;;;22.88;67.66
10060;BME280;5069;49.306;8.636;2022-07-26T05:43:51;100368.94;;;22.92;68.30
10060;BME280;5069;49.306;8.636;2022-07-26T05:46:52;100361.78;;;23.02;67.06
10060;BME280;5069;49.306;8.636;2022-07-26T05:49:54;100365.91;;;22.85;67.09
10060;BME280;5069;49.306;8.636;2022-07-26T05:52:55;100379.28;;;22.76;67.38
10060;BME280;5069;49.306;8.636;2022-07-26T05:55:57;100374.38;;;22.70;67.24
10060;BME280;5069;49.306;8.636;2022-07-26T05:58:58;100370.31;;;22.86;66.81
10060;BME280;5069;49.306;8.636;2022-07-26T06:02:00;100369.25;;;22.78;67.04
10060;BME280;5069;49.306;8.636;2022-07-26T06:05:01;100382.94;;;22.75;66.99
10060;BME280;5069;49.306;8.636;2022-07-26T06:08:03;100380.47;;;22.83;66.94
10060;BME280;5069;49.306;8.636;2022-07-26T06:11:05;100381.06;;;22.86;66.39
10060;BME280;5069;49.306;8.636;2022-07-26T06:14:06;100383.56;;;22.99;65.35
10060;BME280;5069;49.306;8.636;2022-07-26T06:17:08;100382.19;;;22.84;65.12
10060;BME280;5069;49.306;8.636;2022-07-26T06:20:10;100378.44;;;22.96;64.59
10060;BME280;5069;49.306;8.636;2022-07-26T06:23:12;100381.91;;;22.87;64.01
10060;BME280;5069;49.306;8.636;2022-07-26T06:26:13;100383.34;;;22.91;63.27
10060;BME280;5069;49.306;8.636;2022-07-26T06:29:15;100386.78;;;22.93;61.89
10060;BME280;5069;49.306;8.636;2022-07-26T06:32:16;100390.28;;;22.73;62.09
10060;BME280;5069;49.306;8.636;2022-07-26T06:35:18;100398.84;;;22.66;62.03
10060;BME280;5069;49.306;8.636;2022-07-26T06:38:20;100393.19;;;22.81;61.50
10060;BME280;5069;49.306;8.636;2022-07-26T06:41:22;100396.47;;;23.05;59.84
10060;BME280;5069;49.306;8.636;2022-07-26T06:44:23;100395.28;;;22.77;60.27
10060;BME280;5069;49.306;8.636;2022-07-26T06:47:25;100386.38;;;22.77;59.52
10060;BME280;5069;49.306;8.636;2022-07-26T06:50:27;100383.22;;;22.72;59.80
10060;BME280;5069;49.306;8.636;2022-07-26T06:53:29;100389.59;;;22.91;58.96
10060;BME280;5069;49.306;8.636;2022-07-26T06:56:30;100382.66;;;22.89;59.27
10060;BME280;5069;49.306;8.636;2022-07-26T06:59:32;100393.91;;;22.83;58.17
10060;BME280;5069;49.306;8.636;2022-07-26T07:02:34;100396.09;;;22.89;58.01
10060;BME280;5069;49.306;8.636;2022-07-26T07:05:36;100395.16;;;22.67;57.83
10060;BME280;5069;49.306;8.636;2022-07-26T07:08:38;100394.97;;;22.59;58.13
10060;BME280;5069;49.306;8.636;2022-07-26T07:11:42;100398.34;;;22.73;58.30
10060;BME280;5069;49.306;8.636;2022-07-26T07:14:45;100406.88;;;22.78;57.41
10060;BME280;5069;49.306;8.636;2022-07-26T07:17:47;100399.06;;;22.75;57.87
10060;BME280;5069;49.306;8.636;2022-07-26T07:20:48;100406.41;;;22.73;56.49
10060;BME280;5069;49.306;8.636;2022-07-26T07:23:50;100401.25;;;22.70;54.74
10060;BME280;5069;49.306;8.636;2022-07-26T07:26:52;100406.16;;;22.76;54.29
10060;BME280;5069;49.306;8.636;2022-07-26T07:29:55;100408.28;;;22.61;53.92
10060;BME280;5069;49.306;8.636;2022-07-26T07:32:57;100398.34;;;22.73;54.36
10060;BME280;5069;49.306;8.636;2022-07-26T07:35:59;100409.72;;;22.97;54.41
10060;BME280;5069;49.306;8.636;2022-07-26T07:39:00;100411.75;;;23.04;54.36
10060;BME280;5069;49.306;8.636;2022-07-26T07:42:07;100409.66;;;23.08;54.10
10060;BME280;5069;49.306;8.636;2022-07-26T07:45:09;100407.47;;;23.43;53.43
10060;BME280;5069;49.306;8.636;2022-07-26T07:48:11;100405.72;;;23.33;53.38
10060;BME280;5069;49.306;8.636;2022-07-26T07:51:13;100408.59;;;23.20;52.75
10060;BME280;5069;49.306;8.636;2022-07-26T07:54:16;100392.53;;;23.09;52.32
10060;BME280;5069;49.306;8.636;2022-07-26T07:57:18;100391.88;;;22.96;54.07
10060;BME280;5069;49.306;8.636;2022-07-26T08:00:20;100390.09;;;22.85;55.46
10060;BME280;5069;49.306;8.636;2022-07-26T08:03:27;100400.00;;;23.26;53.91
10060;BME280;5069;49.306;8.636;2022-07-26T08:06:40;100395.16;;;23.20;52.84
10060;BME280;5069;49.306;8.636;2022-07-26T08:09:50;100397.53;;;23.34;52.32
10060;BME280;5069;49.306;8.636;2022-07-26T08:12:52;100391.81;;;23.79;49.39
10060;BME280;5069;49.306;8.636;2022-07-26T08:15:54;100396.03;;;23.72;49.80
10060;BME280;5069;49.306;8.636;2022-07-26T08:18:56;100398.53;;;23.94;49.28
10060;BME280;5069;49.306;8.636;2022-07-26T08:21:58;100405.41;;;23.77;49.89
10060;BME280;5069;49.306;8.636;2022-07-26T08:25:01;100407.69;;;23.82;49.54
10060;BME280;5069;49.306;8.636;2022-07-26T08:28:03;100410.41;;;23.52;50.02
10060;BME280;5069;49.306;8.636;2022-07-26T08:31:05;100408.94;;;23.47;50.45
10060;BME280;5069;49.306;8.636;2022-07-26T08:34:06;100406.25;;;23.78;49.82
10060;BME280;5069;49.306;8.636;2022-07-26T08:37:08;100404.44;;;24.18;48.14
10060;BME280;5069;49.306;8.636;2022-07-26T08:40:18;100411.84;;;24.36;47.74
10060;BME280;5069;49.306;8.636;2022-07-26T08:43:19;100409.59;;;24.50;47.29
10060;BME280;5069;49.306;8.636;2022-07-26T08:46:22;100417.41;;;24.73;46.90
10060;BME280;5069;49.306;8.636;2022-07-26T08:49:28;100415.88;;;24.89;47.02
10060;BME280;5069;49.306;8.636;2022-07-26T08:52:30;100410.16;;;25.31;45.62
10060;BME280;5069;49.306;8.636;2022-07-26T08:55:31;100413.84;;;25.39;44.36
10060;BME280;5069;49.306;8.636;2022-07-26T08:58:53;100411.16;;;25.30;45.01
10060;BME280;5069;49.306;8.636;2022-07-26T09:02:00;100417.28;;;25.22;44.68
10060;BME280;5069;49.306;8.636;2022-07-26T09:05:03;100422.97;;;24.90;45.25
10060;BME280;5069;49.306;8.636;2022-07-26T09:08:26;100414.91;;;24.90;45.48
10060;BME280;5069;49.306;8.636;2022-07-26T09:11:32;100415.56;;;24.54;45.79
10060;BME280;5069;49.306;8.636;2022-07-26T09:14:37;100422.09;;;24.61;45.52
10060;BME280;5069;49.306;8.636;2022-07-26T09:17:41;100422.81;;;24.73;46.57
10060;BME280;5069;49.306;8.636;2022-07-26T09:20:45;100423.53;;;24.75;46.26
10060;BME280;5069;49.306;8.636;2022-07-26T09:23:48;100420.69;;;24.76;45.50
10060;BME280;5069;49.306;8.636;2022-07-26T09:26:57;100419.84;;;24.85;45.49
10060;BME280;5069;49.306;8.636;2022-07-26T09:30:05;100418.69;;;24.59;45.97
10060;BME280;5069;49.306;8.636;2022-07-26T09:33:07;100419.84;;;24.95;45.96
10060;BME280;5069;49.306;8.636;2022-07-26T09:36:08;100413.69;;;25.41;44.45
10060;BME280;5069;49.306;8.636;2022-07-26T09:39:10;100413.25;;;25.45;43.16
10060;BME280;5069;49.306;8.636;2022-07-26T09:42:12;100422.69;;;25.22;44.15
10060;BME280;5069;49.306;8.636;2022-07-26T09:45:32;100421.25;;;25.28;43.86
10060;BME280;5069;49.306;8.636;2022-07-26T09:48:34;100415.56;;;25.31;43.38
10060;BME280;5069;49.306;8.636;2022-07-26T09:51:58;100420.41;;;25.27;43.84
10060;BME280;5069;49.306;8.636;2022-07-26T09:55:03;100415.31;;;25.15;44.27
10060;BME280;5069;49.306;8.636;2022-07-26T09:58:06;100424.94;;;25.27;44.47
10060;BME280;5069;49.306;8.636;2022-07-26T10:01:07;100428.78;;;25.34;43.95
10060;BME280;5069;49.306;8.636;2022-07-26T10:04:09;100430.34;;;25.27;44.00
10060;BME280;5069;49.306;8.636;2022-07-26T10:07:12;100429.66;;;25.15;43.82
10060;BME280;5069;49.306;8.636;2022-07-26T10:10:18;100423.81;;;25.20;44.51
10060;BME280;5069;49.306;8.636;2022-07-26T10:13:21;100422.78;;;25.30;44.51
10060;BME280;5069;49.306;8.636;2022-07-26T10:16:28;100429.47;;;25.45;44.49
10060;BME280;5069;49.306;8.636;2022-07-26T10:19:39;100433.13;;;25.54;44.35
10060;BME280;5069;49.306;8.636;2022-07-26T10:22:47;100431.56;;;25.42;44.20
10060;BME280;5069;49.306;8.636;2022-07-26T10:25:50;100433.44;;;25.32;44.07
10060;BME280;5069;49.306;8.636;2022-07-26T10:28:52;100432.56;;;25.41;44.32
10060;BME280;5069;49.306;8.636;2022-07-26T10:35:28;100434.00;;;25.45;43.99
10060;BME280;5069;49.306;8.636;2022-07-26T10:38:29;100433.88;;;25.56;44.13
10060;BME280;5069;49.306;8.636;2022-07-26T10:41:38;100439.97;;;25.39;43.74
10060;BME280;5069;49.306;8.636;2022-07-26T10:44:41;100434.56;;;25.48;43.85
10060;BME280;5069;49.306;8.636;2022-07-26T10:51:24;100435.69;;;25.46;42.83
10060;BME280;5069;49.306;8.636;2022-07-26T10:54:25;100437.00;;;25.32;43.04
10060;BME280;5069;49.306;8.636;2022-07-26T10:57:36;100430.72;;;25.41;43.05
10060;BME280;5069;49.306;8.636;2022-07-26T11:00:38;100429.41;;;25.55;42.39
10060;BME280;5069;49.306;8.636;2022-07-26T11:03:41;100431.03;;;25.38;42.86
10060;BME280;5069;49.306;8.636;2022-07-26T11:06:43;100429.88;;;25.41;43.19
10060;BME280;5069;49.306;8.636;2022-07-26T11:09:45;100425.00;;;25.54;42.71
10060;BME280;5069;49.306;8.636;2022-07-26T11:12:47;100425.59;;;25.48;42.93
10060;BME280;5069;49.306;8.636;2022-07-26T11:15:57;100424.50;;;25.87;41.97
10060;BME280;5069;49.306;8.636;2022-07-26T11:19:20;100416.31;;;26.07;41.82
10060;BME280;5069;49.306;8.636;2022-07-26T11:22:30;100417.03;;;26.36;40.36
10060;BME280;5069;49.306;8.636;2022-07-26T11:25:32;100416.84;;;26.10;40.09
10060;BME280;5069;49.306;8.636;2022-07-26T11:31:54;100420.72;;;26.08;41.42
10060;BME280;5069;49.306;8.636;2022-07-26T11:35:05;100408.31;;;26.42;40.13
10060;BME280;5069;49.306;8.636;2022-07-26T11:38:06;100405.75;;;26.13;40.38
10060;BME280;5069;49.306;8.636;2022-07-26T11:41:14;100408.81;;;26.01;40.84
10060;BME280;5069;49.306;8.636;2022-07-26T11:44:19;100416.19;;;25.99;40.88
10060;BME280;5069;49.306;8.636;2022-07-26T11:47:22;100417.31;;;25.78;41.31
10060;BME280;5069;49.306;8.636;2022-07-26T11:50:26;100408.00;;;26.18;40.48
10060;BME280;5069;49.306;8.636;2022-07-26T11:53:28;100405.63;;;26.60;39.67
10060;BME280;5069;49.306;8.636;2022-07-26T11:56:29;100394.75;;;27.05;38.64
10060;BME280;5069;49.306;8.636;2022-07-26T11:59:35;100395.59;;;27.57;36.71
10060;BME280;5069;49.306;8.636;2022-07-26T12:02:36;100392.09;;;27.65;36.60
10060;BME280;5069;49.306;8.636;2022-07-26T12:05:38;100377.69;;;27.56;37.49
10060;BME280;5069;49.306;8.636;2022-07-26T12:08:54;100392.19;;;27.81;36.46
10060;BME280;5069;49.306;8.636;2022-07-26T12:11:56;100398.50;;;27.56;36.85
10060;BME280;5069;49.306;8.636;2022-07-26T12:15:00;100394.53;;;27.76;36.74
10060;BME280;5069;49.306;8.636;2022-07-26T12:18:02;100394.28;;;27.95;36.22
10060;BME280;5069;49.306;8.636;2022-07-26T12:21:07;100392.59;;;27.94;35.66
10060;BME280;5069;49.306;8.636;2022-07-26T12:24:11;100383.81;;;28.00;35.73
10060;BME280;5069;49.306;8.636;2022-07-26T12:30:19;100380.94;;;28.10;35.29
10060;BME280;5069;49.306;8.636;2022-07-26T12:33:21;100371.41;;;27.89;35.48
10060;BME280;5069;49.306;8.636;2022-07-26T12:36:23;100378.81;;;27.79;35.68
10060;BME280;5069;49.306;8.636;2022-07-26T12:39:28;100369.59;;;28.06;34.96
10060;BME280;5069;49.306;8.636;2022-07-26T12:42:35;100370.28;;;27.66;35.52
10060;BME280;5069;49.306;8.636;2022-07-26T12:45:37;100376.75;;;27.47;35.87
10060;BME280;5069;49.306;8.636;2022-07-26T12:48:39;100371.97;;;27.41;36.70
10060;BME280;5069;49.306;8.636;2022-07-26T12:51:41;100380.50;;;27.29;36.81
10060;BME280;5069;49.306;8.636;2022-07-26T12:54:45;100367.91;;;27.45;36.58
10060;BME280;5069;49.306;8.636;2022-07-26T12:57:47;100360.13;;;27.42;36.72
10060;BME280;5069;49.306;8.636;2022-07-26T13:00:56;100358.13;;;27.44;36.71
10060;BME280;5069;49.306;8.636;2022-07-26T13:03:59;100357.00;;;27.29;36.78
10060;BME280;5069;49.306;8.636;2022-07-26T13:07:01;100353.25;;;27.74;36.22
10060;BME280;5069;49.306;8.636;2022-07-26T13:10:07;100361.09;;;28.51;34.32
10060;BME280;5069;49.306;8.636;2022-07-26T13:13:29;100356.50;;;28.35;34.53
10060;BME280;5069;49.306;8.636;2022-07-26T13:16:31;100353.56;;;28.13;35.15
10060;BME280;5069;49.306;8.636;2022-07-26T13:19:33;100361.13;;;28.01;35.20
10060;BME280;5069;49.306;8.636;2022-07-26T13:22:35;100353.88;;;27.68;35.60
10060;BME280;5069;49.306;8.636;2022-07-26T13:25:37;100361.34;;;27.48;36.02
10060;BME280;5069;49.306;8.636;2022-07-26T13:28:40;100355.69;;;27.33;36.53
10060;BME280;5069;49.306;8.636;2022-07-26T13:31:42;100359.03;;;27.27;36.48
10060;BME280;5069;49.306;8.636;2022-07-26T13:34:44;100358.50;;;27.24;36.67
10060;BME280;5069;49.306;8.636;2022-07-26T13:37:45;100356.97;;;27.21;36.66
10060;BME280;5069;49.306;8.636;2022-07-26T13:40:47;100359.72;;;26.86;37.39
10060;BME280;5069;49.306;8.636;2022-07-26T13:43:51;100357.25;;;26.74;37.76
10060;BME280;5069;49.306;8.636;2022-07-26T13:46:54;100357.25;;;26.57;37.72
10060;BME280;5069;49.306;8.636;2022-07-26T13:49:55;100357.72;;;26.52;38.09
10060;BME280;5069;49.306;8.636;2022-07-26T13:52:57;100352.94;;;26.46;38.30
10060;BME280;5069;49.306;8.636;2022-07-26T13:55:58;100354.41;;;26.76;37.94
10060;BME280;5069;49.306;8.636;2022-07-26T13:59:00;100357.63;;;26.80;37.84
10060;BME280;5069;49.306;8.636;2022-07-26T14:02:01;100358.41;;;26.90;37.55
10060;BME280;5069;49.306;8.636;2022-07-26T14:05:05;100350.28;;;26.90;37.61
10060;BME280;5069;49.306;8.636;2022-07-26T14:08:06;100344.88;;;26.72;37.91
10060;BME280;5069;49.306;8.636;2022-07-26T14:11:08;100347.38;;;26.65;38.21
10060;BME280;5069;49.306;8.636;2022-07-26T14:14:11;100357.09;;;26.58;38.24
10060;BME280;5069;49.306;8.636;2022-07-26T14:17:13;100352.69;;;26.57;38.42
10060;BME280;5069;49.306;8.636;2022-07-26T14:20:15;100354.09;;;26.61;38.72
10060;BME280;5069;49.306;8.636;2022-07-26T14:23:17;100353.53;;;26.76;38.38
10060;BME280;5069;49.306;8.636;2022-07-26T14:26:19;100353.22;;;26.79;38.08
10060;BME280;5069;49.306;8.636;2022-07-26T14:29:20;100348.06;;;26.67;38.12
10060;BME280;5069;49.306;8.636;2022-07-26T14:32:21;100349.00;;;26.76;38.09
10060;BME280;5069;49.306;8.636;2022-07-26T14:35:24;100344.34;;;26.86;38.05
10060;BME280;5069;49.306;8.636;2022-07-26T14:38:25;100351.38;;;26.97;37.60
10060;BME280;5069;49.306;8.636;2022-07-26T14:41:30;100355.56;;;27.17;37.28
10060;BME280;5069;49.306;8.636;2022-07-26T14:44:32;100356.22;;;27.11;37.54
10060;BME280;5069;49.306;8.636;2022-07-26T14:47:44;100350.81;;;27.11;37.31
10060;BME280;5069;49.306;8.636;2022-07-26T14:50:46;100349.91;;;27.02;37.43
10060;BME280;5069;49.306;8.636;2022-07-26T14:54:08;100347.06;;;27.12;37.61
10060;BME280;5069;49.306;8.636;2022-07-26T14:57:10;100351.00;;;27.18;37.26
10060;BME280;5069;49.306;8.636;2022-07-26T15:00:14;100343.72;;;27.18;37.72
10060;BME280;5069;49.306;8.636;2022-07-26T15:03:16;100341.00;;;27.10;37.46
10060;BME280;5069;49.306;8.636;2022-07-26T15:06:17;100338.06;;;27.29;37.75
10060;BME280;5069;49.306;8.636;2022-07-26T15:09:19;100341.88;;;27.19;37.82
10060;BME280;5069;49.306;8.636;2022-07-26T15:12:20;100338.69;;;27.23;37.54
10060;BME280;5069;49.306;8.636;2022-07-26T15:15:22;100337.97;;;27.13;38.03
10060;BME280;5069;49.306;8.636;2022-07-26T15:18:24;100334.13;;;26.98;37.93
10060;BME280;5069;49.306;8.636;2022-07-26T15:21:25;100331.38;;;27.16;38.23
10060;BME280;5069;49.306;8.636;2022-07-26T15:24:27;100331.97;;;27.27;37.71
10060;BME280;5069;49.306;8.636;2022-07-26T15:27:29;100319.75;;;27.23;38.13
10060;BME280;5069;49.306;8.636;2022-07-26T15:30:31;100322.16;;;27.26;37.89
10060;BME280;5069;49.306;8.636;2022-07-26T15:33:33;100317.81;;;27.33;37.48
10060;BME280;5069;49.306;8.636;2022-07-26T15:36:35;100323.34;;;27.58;37.33
10060;BME280;5069;49.306;8.636;2022-07-26T15:39:37;100320.03;;;27.72;37.03
10060;BME280;5069;49.306;8.636;2022-07-26T15:42:41;100316.69;;;27.78;37.54
10060;BME280;5069;49.306;8.636;2022-07-26T15:45:44;100315.69;;;27.87;37.31
10060;BME280;5069;49.306;8.636;2022-07-26T15:48:45;100308.22;;;27.81;37.07
10060;BME280;5069;49.306;8.636;2022-07-26T15:51:47;100308.25;;;27.89;37.16
10060;BME280;5069;49.306;8.636;2022-07-26T15:54:50;100311.75;;;27.81;37.09
10060;BME280;5069;49.306;8.636;2022-07-26T15:57:53;100300.28;;;27.79;36.90
10060;BME280;5069;49.306;8.636;2022-07-26T16:00:55;100310.25;;;27.87;36.30
10060;BME280;5069;49.306;8.636;2022-07-26T16:03:56;100295.31;;;27.75;36.95
10060;BME280;5069;49.306;8.636;2022-07-26T16:06:58;100306.53;;;27.88;36.23
10060;BME280;5069;49.306;8.636;2022-07-26T16:09:59;100307.34;;;27.72;36.24
10060;BME280;5069;49.306;8.636;2022-07-26T16:13:02;100294.94;;;27.62;36.70
10060;BME280;5069;49.306;8.636;2022-07-26T16:16:04;100304.09;;;27.61;36.78
10060;BME280;5069;49.306;8.636;2022-07-26T16:19:06;100287.69;;;27.70;36.71
10060;BME280;5069;49.306;8.636;2022-07-26T16:22:07;100292.84;;;27.89;36.35
10060;BME280;5069;49.306;8.636;2022-07-26T16:25:09;100299.16;;;27.56;36.46